Time;durP1;ratioP1;P1;durP2;ratioP2;P2;SDS_P1;SDS_P2;PMS_P1;PMS_P2;Temp;Humidity;BMP_temperature;BMP_pressure;BME280_temperature;BME280_humidity;BME280_pressure;Samples;Min_cycle;Max_cycle;Signal;HPM_P1;HPM_P2
2023/10/21 00:00:06;;;;;;;14.20;5.10;;;;;;;18.87;52.74;94437.00;5049302;28;20415;-70
2023/10/21 00:02:31;;;;;;;8.30;3.80;;;;;;;18.82;53.10;94387.16;5050962;28;20206;-70
2023/10/21 00:04:56;;;;;;;12.45;4.90;;;;;;;18.81;53.27;94438.91;5050178;28;20443;-70
2023/10/21 00:07:22;;;;;;;11.33;4.53;;;;;;;18.62;53.66;94419.22;5049498;28;20542;-70
2023/10/21 00:09:47;;;;;;;10.00;4.43;;;;;;;18.59;54.02;94405.66;5050898;28;20627;-70
2023/10/21 00:12:13;;;;;;;12.70;5.47;;;;;;;18.56;54.09;94409.63;5050041;28;20399;-69
2023/10/21 00:14:38;;;;;;;9.93;4.53;;;;;;;18.45;55.08;94440.84;5049831;28;20482;-69
2023/10/21 00:17:04;;;;;;;13.82;6.05;;;;;;;18.35;54.86;94416.84;5049688;28;20760;-69
2023/10/21 00:19:30;;;;;;;15.73;4.88;;;;;;;18.30;55.18;94421.41;5050508;28;20621;-70
2023/10/21 00:21:56;;;;;;;15.90;5.22;;;;;;;18.26;55.42;94404.34;5050097;28;20925;-70
2023/10/21 00:24:21;;;;;;;14.83;5.67;;;;;;;17.70;57.57;94431.84;5049331;28;20407;-70
2023/10/21 00:26:48;;;;;;;24.17;8.45;;;;;;;17.54;57.92;94437.38;5050329;28;20475;-70
2023/10/21 00:29:15;;;;;;;11.70;5.95;;;;;;;17.53;57.91;94412.63;5050586;28;20171;-70
2023/10/21 00:31:44;;;;;;;11.13;5.28;;;;;;;17.64;57.88;94427.53;5049477;28;20925;-70
2023/10/21 00:34:10;;;;;;;13.20;5.70;;;;;;;17.39;59.00;94458.59;5049902;28;20427;-70
2023/10/21 00:36:36;;;;;;;14.40;5.45;;;;;;;17.46;58.81;94412.06;5049984;28;20418;-70
2023/10/21 00:39:02;;;;;;;14.70;4.88;;;;;;;17.48;58.96;94439.22;5049982;28;20407;-70
2023/10/21 00:41:27;;;;;;;14.77;4.95;;;;;;;17.41;59.47;94461.81;5048792;28;20442;-70
2023/10/21 00:43:53;;;;;;;13.38;4.50;;;;;;;17.39;59.42;94467.41;5050214;28;20262;-70
2023/10/21 00:46:19;;;;;;;14.50;5.85;;;;;;;17.38;59.67;94471.16;5050112;28;20186;-70
2023/10/21 00:48:45;;;;;;;10.18;4.78;;;;;;;17.23;60.54;94447.13;5048855;28;20415;-69
2023/10/21 00:51:11;;;;;;;14.40;4.70;;;;;;;17.40;59.63;94461.00;5048564;28;20407;-69
2023/10/21 00:53:37;;;;;;;13.17;5.00;;;;;;;17.39;59.94;94439.97;5049944;28;20071;-69
2023/10/21 00:56:05;;;;;;;8.40;4.13;;;;;;;17.20;60.44;94463.63;5049724;28;20516;-70
2023/10/21 00:58:32;;;;;;;12.00;5.13;;;;;;;17.30;60.20;94450.34;5050038;28;20628;-70
2023/10/21 01:00:59;;;;;;;22.00;4.90;;;;;;;17.32;60.08;94454.34;5049576;28;20514;-70
2023/10/21 01:03:29;;;;;;;11.73;5.07;;;;;;;17.35;60.12;94487.63;5048337;28;20582;-70
2023/10/21 01:05:54;;;;;;;13.98;5.47;;;;;;;17.33;60.28;94434.66;5048784;28;20473;-70
2023/10/21 01:08:20;;;;;;;9.53;4.50;;;;;;;17.47;59.91;94482.84;5048032;28;20430;-70
2023/10/21 01:10:45;;;;;;;10.23;4.15;;;;;;;17.51;59.73;94454.66;5049604;28;20182;-70
2023/10/21 01:13:11;;;;;;;12.45;4.78;;;;;;;17.44;60.14;94491.38;5049130;28;20419;-70
2023/10/21 01:15:36;;;;;;;18.60;7.60;;;;;;;17.17;60.99;94459.63;5048429;28;20909;-70
2023/10/21 01:18:03;;;;;;;12.85;5.78;;;;;;;17.17;60.56;94441.00;5069098;28;20678;-70
2023/10/21 01:20:29;;;;;;;14.35;5.55;;;;;;;17.25;60.92;94472.44;5068772;28;20508;-70
2023/10/21 01:22:58;;;;;;;9.13;4.97;;;;;;;17.08;61.27;94463.84;5068500;28;20947;-70
2023/10/21 01:25:24;;;;;;;9.00;4.95;;;;;;;17.01;61.06;94430.59;5069545;28;20181;-70
2023/10/21 01:27:57;;;;;;;11.45;5.10;;;;;;;16.80;62.46;94459.75;5068460;28;20406;-70
2023/10/21 01:30:23;;;;;;;12.02;4.55;;;;;;;16.85;62.44;94457.13;5068447;28;20432;-70
2023/10/21 01:32:48;;;;;;;8.97;4.20;;;;;;;16.67;62.86;94430.97;5068940;28;20917;-70
2023/10/21 01:35:15;;;;;;;10.38;4.07;;;;;;;16.90;62.44;94466.97;5069147;28;20185;-70
2023/10/21 01:37:40;;;;;;;10.80;4.50;;;;;;;16.72;63.06;94462.09;5068878;28;20409;-70
2023/10/21 01:40:07;;;;;;;10.77;4.30;;;;;;;16.51;64.07;94446.03;5068340;28;20405;-70
2023/10/21 01:42:34;;;;;;;11.27;4.30;;;;;;;16.57;63.86;94441.53;5068077;28;20442;-70
2023/10/21 01:44:59;;;;;;;11.18;4.57;;;;;;;16.45;64.50;94488.75;5068402;28;20511;-70
2023/10/21 01:47:25;;;;;;;9.10;4.53;;;;;;;16.56;64.11;94410.69;5068296;28;20510;-70
2023/10/21 01:49:50;;;;;;;10.07;4.03;;;;;;;16.78;63.07;94429.94;5068074;28;20417;-70
2023/10/21 01:52:16;;;;;;;11.03;4.43;;;;;;;16.74;63.34;94498.00;5051181;28;20914;-71
2023/10/21 01:54:43;;;;;;;12.77;3.90;;;;;;;17.01;62.23;94441.22;5048375;28;20415;-71
2023/10/21 01:57:09;;;;;;;12.35;4.10;;;;;;;17.14;61.71;94430.09;5048378;28;20559;-70
2023/10/21 01:59:41;;;;;;;11.07;4.03;;;;;;;17.27;61.05;94438.38;5047019;28;20446;-70
2023/10/21 02:02:06;;;;;;;8.32;3.42;;;;;;;17.26;60.94;94463.38;5066695;28;20544;-70
2023/10/21 02:04:32;;;;;;;8.02;3.65;;;;;;;17.22;60.85;94461.50;5067726;28;20517;-70
2023/10/21 02:06:58;;;;;;;9.68;3.88;;;;;;;17.36;60.37;94462.63;5068943;28;20669;-70
2023/10/21 02:09:23;;;;;;;12.88;3.78;;;;;;;17.13;61.11;94465.72;5068796;28;20480;-70
2023/10/21 02:11:49;;;;;;;8.65;3.20;;;;;;;17.13;60.75;94437.25;5069013;28;20166;-70
2023/10/21 02:14:14;;;;;;;12.77;4.00;;;;;;;17.25;60.50;94466.31;5067439;28;20425;-70
2023/10/21 02:16:40;;;;;;;8.18;3.58;;;;;;;17.20;60.49;94474.28;5068038;28;20792;-70
2023/10/21 02:19:05;;;;;;;14.07;4.53;;;;;;;17.23;60.52;94482.53;5068885;28;20197;-70
2023/10/21 02:21:31;;;;;;;7.60;3.63;;;;;;;17.26;60.51;94479.34;5069578;28;20455;-71
2023/10/21 02:23:56;;;;;;;13.63;5.80;;;;;;;17.15;61.04;94459.09;5071419;28;20483;-71
2023/10/21 02:26:22;;;;;;;8.60;3.77;;;;;;;17.11;61.30;94476.63;5072005;28;20414;-71
2023/10/21 02:28:47;;;;;;;8.13;3.73;;;;;;;16.95;61.44;94461.69;5071432;28;20471;-71
2023/10/21 02:31:12;;;;;;;7.18;3.80;;;;;;;17.04;61.62;94480.59;5072661;28;20220;-71
2023/10/21 02:33:38;;;;;;;9.43;3.60;;;;;;;16.92;62.39;94483.47;5071255;28;20839;-71
2023/10/21 02:36:04;;;;;;;9.95;3.63;;;;;;;16.81;62.53;94479.94;5071627;28;20413;-71
2023/10/21 02:38:30;;;;;;;9.85;3.95;;;;;;;16.93;62.24;94480.56;5072746;28;20178;-71
2023/10/21 02:40:55;;;;;;;11.57;4.07;;;;;;;16.82;62.53;94497.50;5071213;28;20429;-71
2023/10/21 02:43:21;;;;;;;10.38;4.43;;;;;;;16.67;63.17;94486.00;5072447;28;20178;-71
2023/10/21 02:45:48;;;;;;;13.60;4.68;;;;;;;16.61;63.25;94490.47;5072018;28;20187;-71
2023/10/21 02:48:14;;;;;;;9.00;4.30;;;;;;;16.44;64.01;94487.94;5071273;28;20501;-71
2023/10/21 02:50:40;;;;;;;9.25;4.25;;;;;;;16.38;64.30;94472.22;5072422;28;20253;-71
2023/10/21 02:53:05;;;;;;;15.63;4.45;;;;;;;16.36;64.39;94487.63;5071957;28;20213;-71
2023/10/21 02:55:30;;;;;;;13.02;5.43;;;;;;;16.27;64.89;94481.97;5072184;28;20186;-71
2023/10/21 02:57:56;;;;;;;12.10;5.47;;;;;;;15.92;66.00;94482.50;5071019;28;20444;-71
2023/10/21 03:00:22;;;;;;;11.57;5.35;;;;;;;15.80;66.83;94495.97;5071034;28;20751;-70
2023/10/21 03:02:51;;;;;;;11.13;4.83;;;;;;;15.70;67.62;94498.50;5070827;28;20405;-70
2023/10/21 03:05:18;;;;;;;10.52;4.65;;;;;;;15.69;67.47;94501.41;5071920;28;20186;-70
2023/10/21 03:07:43;;;;;;;9.02;4.55;;;;;;;15.76;67.19;94510.78;5071775;28;20409;-70
2023/10/21 03:10:10;;;;;;;12.52;4.95;;;;;;;15.60;67.45;94503.72;5064083;28;20261;-71
2023/10/21 03:12:36;;;;;;;10.60;4.65;;;;;;;15.67;67.44;94482.28;5051881;28;20674;-71
2023/10/21 03:15:02;;;;;;;9.13;5.40;;;;;;;15.47;68.31;94518.16;5050640;28;20446;-70
2023/10/21 03:17:28;;;;;;;8.13;4.30;;;;;;;15.12;70.19;94485.13;5050887;28;20408;-70
2023/10/21 03:19:56;;;;;;;10.40;4.35;;;;;;;15.13;70.37;94508.75;5050803;28;20487;-70
2023/10/21 03:22:22;;;;;;;8.80;4.22;;;;;;;15.17;70.12;94517.81;5051395;28;20438;-70
2023/10/21 03:24:47;;;;;;;11.93;4.80;;;;;;;15.23;70.04;94506.19;5050422;28;20814;-70
2023/10/21 03:27:13;;;;;;;13.37;5.00;;;;;;;15.32;69.70;94502.06;5050281;28;20411;-70
2023/10/21 03:29:39;;;;;;;8.40;4.10;;;;;;;15.45;69.13;94492.91;5051505;28;20484;-70
2023/10/21 03:32:05;;;;;;;17.80;4.70;;;;;;;15.47;68.88;94493.47;5051264;28;20475;-70
2023/10/21 03:34:34;;;;;;;10.07;4.30;;;;;;;15.41;69.19;94523.63;5049734;28;20492;-70
2023/10/21 03:37:00;;;;;;;13.57;4.30;;;;;;;15.22;69.87;94504.59;5050337;28;20439;-70
2023/10/21 03:39:26;;;;;;;11.88;4.32;;;;;;;15.39;69.52;94492.06;5051333;28;20186;-70
2023/10/21 03:41:52;;;;;;;8.23;4.30;;;;;;;15.44;69.34;94523.94;5050431;28;20203;-70
2023/10/21 03:44:18;;;;;;;14.23;4.65;;;;;;;15.40;69.35;94498.16;5049844;28;20415;-70
2023/10/21 03:46:43;;;;;;;8.95;4.60;;;;;;;15.27;70.12;94503.88;5049811;28;20426;-69
2023/10/21 03:49:09;;;;;;;8.90;4.78;;;;;;;15.24;70.40;94494.53;5050358;28;20411;-70
2023/10/21 03:51:34;;;;;;;8.90;4.05;;;;;;;15.25;69.81;94488.19;5050950;28;20610;-70
2023/10/21 03:54:01;;;;;;;11.37;4.63;;;;;;;15.22;70.61;94493.97;5050514;28;20425;-71
2023/10/21 03:56:27;;;;;;;8.07;4.10;;;;;;;15.20;70.46;94503.25;5050459;28;20946;-71
2023/10/21 03:58:52;;;;;;;7.07;3.88;;;;;;;15.16;70.28;94502.94;5050986;28;20183;-70
2023/10/21 04:01:20;;;;;;;9.90;4.22;;;;;;;15.13;70.66;94511.41;5050937;28;20199;-70
2023/10/21 04:03:46;;;;;;;9.95;4.88;;;;;;;14.93;71.62;94508.50;5049576;28;20446;-70
2023/10/21 04:06:13;;;;;;;18.10;4.65;;;;;;;14.92;71.28;94485.69;5050857;28;20266;-70
2023/10/21 04:08:39;;;;;;;16.83;4.68;;;;;;;14.83;71.70;94511.00;5050934;28;20264;-70
2023/10/21 04:11:04;;;;;;;9.68;4.45;;;;;;;14.73;71.97;94499.22;5050661;28;20177;-70
2023/10/21 04:13:30;;;;;;;15.35;5.53;;;;;;;14.68;72.49;94499.19;5050737;28;20670;-70
2023/10/21 04:15:59;;;;;;;17.27;8.47;;;;;;;14.50;72.82;94506.59;5050511;28;20906;-69
2023/10/21 04:18:25;;;;;;;15.88;6.35;;;;;;;14.30;73.62;94488.53;5050591;28;20267;-70
2023/10/21 04:20:50;;;;;;;15.95;5.90;;;;;;;14.37;73.90;94505.03;5050588;28;20195;-70
2023/10/21 04:23:16;;;;;;;17.90;6.70;;;;;;;14.35;73.93;94501.84;5050401;28;20187;-70
2023/10/21 04:25:41;;;;;;;17.33;8.87;;;;;;;14.30;73.88;94507.06;5066502;28;20185;-70
2023/10/21 04:28:07;;;;;;;53.57;12.97;;;;;;;14.08;74.85;94508.84;5049743;28;20407;-70
2023/10/21 04:30:32;;;;;;;21.40;6.77;;;;;;;13.87;76.07;94524.38;5049288;28;20430;-70
2023/10/21 04:32:58;;;;;;;30.03;7.40;;;;;;;13.77;77.05;94512.81;5049526;28;20415;-70
2023/10/21 04:35:23;;;;;;;15.43;6.20;;;;;;;13.88;76.17;94519.88;5050675;28;20079;-70
2023/10/21 04:37:49;;;;;;;29.88;6.00;;;;;;;14.02;75.61;94515.06;5050174;28;20182;-69
2023/10/21 04:40:15;;;;;;;13.32;6.10;;;;;;;14.08;75.09;94514.94;5050076;28;20197;-70
2023/10/21 04:42:41;;;;;;;18.55;7.45;;;;;;;13.95;76.07;94525.81;5048920;28;20414;-70
2023/10/21 04:45:08;;;;;;;18.63;6.35;;;;;;;14.00;75.90;94525.94;5048250;28;20282;-70
2023/10/21 04:47:34;;;;;;;16.25;6.38;;;;;;;14.04;75.18;94516.44;5046670;28;20175;-69
2023/10/21 04:49:59;;;;;;;23.38;6.93;;;;;;;14.06;75.01;94524.16;5066911;28;20189;-69
2023/10/21 04:52:24;;;;;;;22.47;10.47;;;;;;;14.01;75.15;94542.63;5049130;28;20182;-69
2023/10/21 04:54:50;;;;;;;26.13;8.30;;;;;;;13.79;76.41;94539.84;5048336;28;20972;-69
2023/10/21 04:57:16;;;;;;;23.63;7.47;;;;;;;13.77;76.87;94548.00;5049024;28;20296;-70
2023/10/21 04:59:42;;;;;;;15.30;8.43;;;;;;;13.87;76.17;94520.94;5049316;28;20190;-70
2023/10/21 05:02:08;;;;;;;21.80;8.93;;;;;;;13.90;76.43;94570.75;5049023;28;20203;-70
2023/10/21 05:04:34;;;;;;;18.73;7.90;;;;;;;13.89;76.41;94551.41;5049359;28;20183;-70
2023/10/21 05:07:00;;;;;;;20.23;9.00;;;;;;;13.96;76.24;94569.78;5049263;28;20171;-69
2023/10/21 05:09:26;;;;;;;15.73;7.97;;;;;;;13.90;76.61;94568.09;5049040;28;20179;-70
2023/10/21 05:11:51;;;;;;;21.08;8.20;;;;;;;13.85;76.71;94574.06;5049710;28;20198;-70
2023/10/21 05:14:17;;;;;;;20.50;6.47;;;;;;;14.00;76.93;94586.00;5049224;28;20646;-70
2023/10/21 05:16:42;;;;;;;13.20;5.60;;;;;;;13.85;77.24;94586.50;5048734;28;20179;-70
2023/10/21 05:19:07;;;;;;;15.63;5.40;;;;;;;13.96;76.95;94597.03;5049245;28;20232;-69
2023/10/21 05:21:33;;;;;;;18.97;5.40;;;;;;;14.17;76.41;94584.97;5048355;28;20596;-70
2023/10/21 05:23:58;;;;;;;11.80;5.57;;;;;;;14.32;75.77;94587.06;5049342;28;20183;-70
2023/10/21 05:26:28;;;;;;;18.20;5.70;;;;;;;14.47;75.02;94581.22;5048808;28;20710;-69
2023/10/21 05:28:53;;;;;;;15.20;5.33;;;;;;;14.61;74.69;94590.47;5047587;28;20175;-69
2023/10/21 05:31:19;;;;;;;12.70;5.20;;;;;;;14.73;73.90;94589.31;5048892;28;20179;-70
2023/10/21 05:33:44;;;;;;;23.23;4.95;;;;;;;14.73;73.88;94591.97;5048990;28;20200;-70
2023/10/21 05:36:10;;;;;;;13.10;5.28;;;;;;;14.68;73.90;94605.16;5048696;28;20241;-69
2023/10/21 05:38:35;;;;;;;10.73;5.53;;;;;;;14.72;74.07;94606.25;5049173;28;20193;-70
2023/10/21 05:41:01;;;;;;;13.98;4.80;;;;;;;14.92;73.33;94605.75;5049503;28;20217;-69
2023/10/21 05:43:26;;;;;;;11.88;4.80;;;;;;;15.27;72.85;94612.59;5049680;28;20179;-69
2023/10/21 05:45:53;;;;;;;14.57;6.50;;;;;;;15.59;71.56;94613.56;5049363;28;20171;-69
2023/10/21 05:48:19;;;;;;;10.98;4.82;;;;;;;15.88;70.21;94592.13;5049244;28;20183;-69
2023/10/21 05:50:44;;;;;;;16.02;5.57;;;;;;;15.88;69.57;94603.53;5049357;28;20170;-69
2023/10/21 05:53:09;;;;;;;12.95;4.88;;;;;;;15.96;69.60;94620.88;5049205;28;20639;-69
2023/10/21 05:55:41;;;;;;;10.60;5.47;;;;;;;16.03;69.75;94622.28;5049138;28;20187;-69
2023/10/21 05:58:08;;;;;;;14.00;5.43;;;;;;;16.24;68.87;94615.31;5052434;28;20222;-69
2023/10/21 06:00:36;;;;;;;11.50;5.25;;;;;;;16.30;68.28;94635.56;5053138;28;20212;-69
2023/10/21 06:03:02;;;;;;;20.35;5.90;;;;;;;16.38;68.45;94626.31;5053246;28;20320;-69
2023/10/21 06:05:28;;;;;;;24.33;6.88;;;;;;;16.61;67.10;94615.38;5052049;28;20699;-69
2023/10/21 06:07:54;;;;;;;11.82;4.63;;;;;;;16.72;66.28;94613.59;5052999;28;20182;-69
2023/10/21 06:10:20;;;;;;;14.07;4.43;;;;;;;16.90;65.76;94637.94;5053155;28;20189;-69
2023/10/21 06:12:46;;;;;;;18.33;4.47;;;;;;;17.15;65.57;94626.66;5053141;28;20183;-69
2023/10/21 06:15:12;;;;;;;14.48;5.07;;;;;;;18.42;63.89;94630.63;5052947;28;20617;-69
2023/10/21 06:17:37;;;;;;;18.83;5.30;;;;;;;20.10;56.37;94639.19;5052710;28;20264;-69
2023/10/21 06:20:03;;;;;;;26.45;8.73;;;;;;;21.18;53.51;94643.56;5053430;28;20179;-69
2023/10/21 06:22:29;;;;;;;20.00;5.38;;;;;;;21.69;51.86;94643.84;5053104;28;20223;-69
2023/10/21 06:24:54;;;;;;;18.67;4.60;;;;;;;21.61;51.61;94652.50;5052797;28;20193;-70
2023/10/21 06:27:21;;;;;;;11.73;4.72;;;;;;;22.51;50.18;94639.03;5051571;28;20178;-70
2023/10/21 06:29:47;;;;;;;15.98;4.65;;;;;;;23.87;45.99;94648.59;5065272;28;20283;-70
2023/10/21 06:32:12;;;;;;;6.45;2.95;;;;;;;25.75;42.34;94652.41;5052600;28;20642;-70
2023/10/21 06:34:38;;;;;;;10.35;3.08;;;;;;;27.33;37.67;94647.38;5052796;28;20544;-70
2023/10/21 06:37:03;;;;;;;12.77;4.63;;;;;;;29.02;35.23;94654.56;5052567;28;20179;-70
2023/10/21 06:39:29;;;;;;;12.85;4.40;;;;;;;30.68;32.75;94656.72;5052698;28;20187;-70
2023/10/21 06:41:56;;;;;;;9.68;3.85;;;;;;;31.64;29.66;94651.31;5052421;28;20210;-69
2023/10/21 06:44:21;;;;;;;8.13;3.28;;;;;;;32.26;28.82;94657.94;5052418;28;20179;-70
2023/10/21 06:46:47;;;;;;;7.68;3.35;;;;;;;33.08;27.04;94663.31;5052400;28;20171;-70
2023/10/21 06:49:12;;;;;;;12.68;3.30;;;;;;;33.90;26.10;94660.28;5051178;28;20187;-70
2023/10/21 06:51:38;;;;;;;13.73;3.42;;;;;;;34.78;25.14;94663.66;5057035;28;20170;-70
2023/10/21 06:54:05;;;;;;;7.60;3.15;;;;;;;35.75;24.38;94665.69;5071093;28;20193;-70
2023/10/21 06:56:31;;;;;;;8.80;4.05;;;;;;;36.36;22.06;94667.84;5070880;28;20229;-70
2023/10/21 06:58:57;;;;;;;7.38;3.45;;;;;;;36.85;22.18;94661.94;5059492;28;20195;-70
2023/10/21 07:01:22;;;;;;;9.25;3.67;;;;;;;37.26;21.16;94664.56;5051470;28;20199;-70
2023/10/21 07:03:49;;;;;;;8.02;3.35;;;;;;;37.29;21.20;94655.53;5052510;28;20833;-70
2023/10/21 07:06:16;;;;;;;12.93;3.13;;;;;;;37.20;21.08;94639.41;5051860;28;20179;-69
2023/10/21 07:08:42;;;;;;;9.10;3.45;;;;;;;37.13;20.71;94657.78;5052057;28;20178;-70
2023/10/21 07:11:07;;;;;;;11.32;3.55;;;;;;;35.18;22.10;94649.34;5051852;28;20171;-69
2023/10/21 07:13:33;;;;;;;10.40;3.65;;;;;;;34.61;23.29;94646.97;5051408;28;20287;-70
2023/10/21 07:16:10;;;;;;;12.85;3.20;;;;;;;33.69;24.10;94635.28;5051185;28;20252;-70
2023/10/21 07:18:36;;;;;;;8.35;3.50;;;;;;;33.46;25.13;94643.44;5050680;28;20170;-70
2023/10/21 07:21:04;;;;;;;13.23;4.28;;;;;;;33.30;25.35;94648.97;5051149;28;20203;-70
2023/10/21 07:23:32;;;;;;;11.40;3.88;;;;;;;31.80;25.98;94652.13;5049845;28;20179;-69
2023/10/21 07:25:58;;;;;;;10.00;3.97;;;;;;;30.86;27.93;94643.66;5051004;28;20179;-69
2023/10/21 07:28:24;;;;;;;11.25;4.05;;;;;;;30.78;28.90;94649.22;5050053;28;20619;-69
2023/10/21 07:30:52;;;;;;;10.73;4.18;;;;;;;30.60;28.70;94644.03;5050964;28;20175;-69
2023/10/21 07:33:17;;;;;;;10.35;4.05;;;;;;;30.13;29.04;94638.25;5050636;28;20198;-68
2023/10/21 07:35:43;;;;;;;10.15;4.30;;;;;;;30.02;29.37;94634.41;5051130;28;20168;-69
2023/10/21 07:38:08;;;;;;;8.73;4.78;;;;;;;29.70;30.47;94635.25;5050804;28;20171;-68
2023/10/21 07:40:33;;;;;;;26.83;4.85;;;;;;;29.58;32.96;94638.72;5050762;28;21426;-68
2023/10/21 07:42:59;;;;;;;18.75;5.30;;;;;;;29.42;34.51;94643.22;5050030;28;20182;-68
2023/10/21 07:45:25;;;;;;;17.13;4.88;;;;;;;28.95;36.68;94631.84;5049848;28;20631;-68
2023/10/21 07:47:52;;;;;;;9.55;3.95;;;;;;;27.98;35.66;94643.56;5050692;28;20237;-68
2023/10/21 07:50:17;;;;;;;18.58;4.63;;;;;;;27.33;39.40;94647.38;5050798;28;20677;-67
2023/10/21 07:52:43;;;;;;;10.70;3.90;;;;;;;26.73;40.41;94639.31;5049400;28;20204;-67
2023/10/21 07:55:12;;;;;;;14.00;4.63;;;;;;;26.22;41.99;94637.31;5050720;28;20175;-68
2023/10/21 07:57:39;;;;;;;17.02;4.28;;;;;;;25.82;41.44;94634.66;5049835;28;20329;-67
2023/10/21 08:00:05;;;;;;;8.88;3.60;;;;;;;25.21;41.48;94608.47;5050114;28;20163;-68
2023/10/21 08:02:31;;;;;;;10.80;3.95;;;;;;;24.92;47.13;94622.41;5050321;28;20741;-68
2023/10/21 08:04:58;;;;;;;9.55;3.85;;;;;;;24.80;41.96;94646.38;5050411;28;20190;-68
2023/10/21 08:07:23;;;;;;;14.77;3.50;;;;;;;24.56;43.60;94641.25;5049988;28;20265;-68
2023/10/21 08:09:49;;;;;;;15.43;4.45;;;;;;;24.44;44.01;94631.03;5050648;28;20271;-68
2023/10/21 08:12:14;;;;;;;12.77;4.75;;;;;;;24.34;45.22;94625.06;5049953;28;20186;-68
2023/10/21 08:14:40;;;;;;;18.70;4.15;;;;;;;24.31;45.12;94634.53;5048634;28;20328;-67
2023/10/21 08:17:07;;;;;;;10.32;3.38;;;;;;;24.43;46.18;94637.50;5049903;28;20198;-68
2023/10/21 08:19:33;;;;;;;11.32;4.45;;;;;;;24.48;46.91;94620.44;5049527;28;20248;-68
2023/10/21 08:22:00;;;;;;;11.90;3.55;;;;;;;24.57;45.68;94620.50;5050280;28;20673;-68
2023/10/21 08:24:26;;;;;;;10.52;3.05;;;;;;;24.65;44.04;94636.72;5050494;28;20190;-69
2023/10/21 08:26:52;;;;;;;11.95;3.55;;;;;;;24.75;42.87;94624.94;5050429;28;20175;-68
2023/10/21 08:29:17;;;;;;;13.57;3.10;;;;;;;24.82;43.25;94619.94;5047881;28;20183;-67
2023/10/21 08:31:43;;;;;;;9.10;3.83;;;;;;;24.92;41.91;94619.69;5049105;28;20192;-68
2023/10/21 08:34:13;;;;;;;13.35;3.88;;;;;;;25.03;41.52;94625.66;5065804;28;20285;-68
2023/10/21 08:36:39;;;;;;;7.03;3.28;;;;;;;25.12;42.31;94637.28;5061129;28;20175;-68
2023/10/21 08:39:08;;;;;;;10.65;3.20;;;;;;;25.21;41.29;94621.97;5058569;28;20542;-67
2023/10/21 08:41:40;;;;;;;14.95;3.72;;;;;;;25.41;40.13;94626.03;5055463;28;20740;-68
2023/10/21 08:44:07;;;;;;;12.32;3.53;;;;;;;25.52;40.10;94617.34;5064671;28;20235;-68
2023/10/21 08:46:33;;;;;;;11.90;3.53;;;;;;;25.64;38.67;94611.41;5058738;28;20572;-68
2023/10/21 08:49:00;;;;;;;10.00;3.78;;;;;;;25.78;38.68;94609.41;5057385;28;20243;-67
2023/10/21 08:51:26;;;;;;;6.00;3.20;;;;;;;25.87;38.37;94610.22;5055752;28;20206;-68
2023/10/21 08:53:53;;;;;;;11.38;4.13;;;;;;;25.91;38.40;94602.31;5050906;28;20215;-68
2023/10/21 08:56:19;;;;;;;10.18;2.90;;;;;;;26.05;37.49;94602.19;5052632;28;20186;-68
2023/10/21 08:58:46;;;;;;;11.95;2.85;;;;;;;26.13;36.46;94609.50;5050812;28;20171;-68
2023/10/21 09:01:16;;;;;;;12.50;4.18;;;;;;;26.22;36.90;94610.31;5050667;28;20278;-68
2023/10/21 09:03:45;;;;;;;13.07;3.05;;;;;;;26.40;35.96;94589.56;5050810;28;20167;-68
2023/10/21 09:06:11;;;;;;;10.30;3.10;;;;;;;26.47;34.95;94587.19;5052545;28;20638;-69
2023/10/21 09:08:38;;;;;;;5.47;3.05;;;;;;;26.61;34.52;94561.63;5050791;28;20201;-68
2023/10/21 09:11:06;;;;;;;8.88;2.60;;;;;;;26.77;30.15;94588.16;5050311;28;20714;-69
2023/10/21 09:13:35;;;;;;;10.40;3.10;;;;;;;26.89;29.23;94585.59;5050157;28;20187;-69
2023/10/21 09:16:21;;;;;;;9.82;3.25;;;;;;;27.09;27.46;94581.44;5051284;28;20274;-68
2023/10/21 09:19:00;;;;;;;13.02;2.38;;;;;;;27.35;26.22;94587.59;5051500;28;20221;-68
2023/10/21 09:21:41;;;;;;;16.30;4.45;;;;;;;27.49;25.38;94573.88;5049996;28;20648;-68
2023/10/21 09:24:10;;;;;;;20.17;2.63;;;;;;;27.66;25.44;94579.25;5051520;28;20163;-69
2023/10/21 09:26:40;;;;;;;10.55;3.17;;;;;;;27.53;26.05;94537.72;5050811;28;20183;-69
2023/10/21 09:29:07;;;;;;;18.95;3.17;;;;;;;27.75;24.67;94580.00;5050649;28;20224;-69
2023/10/21 09:31:52;;;;;;;9.93;2.60;;;;;;;27.76;25.01;94579.66;5049360;28;20214;-69
2023/10/21 09:34:25;;;;;;;15.25;2.33;;;;;;;27.78;25.38;94576.63;5052742;28;20170;-69
2023/10/21 09:36:53;;;;;;;12.70;2.50;;;;;;;27.84;24.55;94569.13;5049886;28;20171;-68
2023/10/21 09:39:18;;;;;;;10.18;2.42;;;;;;;27.85;25.71;94566.06;5050020;28;20269;-69
2023/10/21 09:41:47;;;;;;;10.27;2.63;;;;;;;27.89;25.41;94566.22;5062859;28;20224;-69
2023/10/21 09:44:15;;;;;;;13.65;3.10;;;;;;;27.96;24.74;94555.69;5051146;28;20175;-69
2023/10/21 09:46:45;;;;;;;11.38;2.47;;;;;;;28.20;24.64;94555.06;5061808;28;20175;-69
2023/10/21 09:49:13;;;;;;;32.05;4.10;;;;;;;28.30;24.57;94560.09;5058238;28;20182;-68
2023/10/21 09:52:00;;;;;;;8.30;2.75;;;;;;;28.36;25.67;94547.97;5053292;28;20635;-69
2023/10/21 09:54:55;;;;;;;9.75;2.83;;;;;;;28.36;25.41;94556.09;5050653;28;20186;-69
2023/10/21 09:57:21;;;;;;;16.48;2.60;;;;;;;28.36;25.61;94542.56;5054869;28;20265;-68
2023/10/21 09:59:48;;;;;;;33.00;3.80;;;;;;;28.34;25.16;94534.75;5063052;28;20224;-69
2023/10/21 10:02:14;;;;;;;16.25;2.75;;;;;;;28.28;25.38;94536.06;5051661;28;20289;-69
2023/10/21 10:04:40;;;;;;;15.50;2.88;;;;;;;28.21;24.14;94530.38;5061943;28;20576;-69
2023/10/21 10:07:06;;;;;;;18.38;3.45;;;;;;;28.33;24.74;94530.47;5056227;28;20410;-68
2023/10/21 10:09:36;;;;;;;22.42;4.53;;;;;;;28.40;25.10;94527.22;5054335;28;20210;-69
2023/10/21 10:12:10;;;;;;;20.10;4.15;;;;;;;28.37;24.11;94520.53;5048074;28;20202;-68
2023/10/21 10:14:36;;;;;;;22.35;3.47;;;;;;;28.49;24.22;94520.59;5067461;28;20416;-68
